sensor_id;sensor_type;location;lat;lon;timestamp;P1;durP1;ratioP1;P2;durP2;ratioP2
55497;SDS011;41357;52.806;18.268;2022-07-23T00:00:00;12.40;;;9.50;;
55497;SDS011;41357;52.806;18.268;2022-07-23T00:02:26;12.95;;;10.13;;
55497;SDS011;41357;52.806;18.268;2022-07-23T00:04:52;15.60;;;10.45;;
55497;SDS011;41357;52.806;18.268;2022-07-23T00:07:18;13.30;;;9.90;;
55497;SDS011;41357;52.806;18.268;2022-07-23T00:09:45;16.23;;;10.15;;
55497;SDS011;41357;52.806;18.268;2022-07-23T00:12:11;15.43;;;11.30;;
55497;SDS011;41357;52.806;18.268;2022-07-23T00:14:37;17.65;;;10.60;;
55497;SDS011;41357;52.806;18.268;2022-07-23T00:17:03;15.48;;;10.75;;
55497;SDS011;41357;52.806;18.268;2022-07-23T00:19:29;15.15;;;11.02;;
55497;SDS011;41357;52.806;18.268;2022-07-23T00:21:55;15.70;;;10.80;;
55497;SDS011;41357;52.806;18.268;2022-07-23T00:24:21;27.17;;;15.05;;
55497;SDS011;41357;52.806;18.268;2022-07-23T00:26:47;66.40;;;29.63;;
55497;SDS011;41357;52.806;18.268;2022-07-23T00:29:13;17.95;;;11.68;;
55497;SDS011;41357;52.806;18.268;2022-07-23T00:31:40;17.25;;;11.75;;
55497;SDS011;41357;52.806;18.268;2022-07-23T00:34:06;17.17;;;10.73;;
55497;SDS011;41357;52.806;18.268;2022-07-23T00:36:32;15.13;;;10.85;;
55497;SDS011;41357;52.806;18.268;2022-07-23T00:38:58;17.42;;;11.10;;
55497;SDS011;41357;52.806;18.268;2022-07-23T00:41:24;15.35;;;11.18;;
55497;SDS011;41357;52.806;18.268;2022-07-23T00:43:50;13.35;;;11.18;;
55497;SDS011;41357;52.806;18.268;2022-07-23T00:46:20;14.38;;;11.32;;
55497;SDS011;41357;52.806;18.268;2022-07-23T00:48:46;15.45;;;11.55;;
55497;SDS011;41357;52.806;18.268;2022-07-23T00:51:12;17.48;;;12.15;;
55497;SDS011;41357;52.806;18.268;2022-07-23T00:53:38;14.52;;;11.07;;
55497;SDS011;41357;52.806;18.268;2022-07-23T00:56:05;14.90;;;11.20;;
55497;SDS011;41357;52.806;18.268;2022-07-23T00:58:31;18.58;;;11.32;;
55497;SDS011;41357;52.806;18.268;2022-07-23T01:00:58;17.85;;;12.02;;
55497;SDS011;41357;52.806;18.268;2022-07-23T01:03:25;15.73;;;11.82;;
55497;SDS011;41357;52.806;18.268;2022-07-23T01:05:51;17.98;;;11.52;;
55497;SDS011;41357;52.806;18.268;2022-07-23T01:08:17;18.00;;;13.27;;
55497;SDS011;41357;52.806;18.268;2022-07-23T01:10:43;15.00;;;11.40;;
55497;SDS011;41357;52.806;18.268;2022-07-23T01:13:09;17.33;;;11.82;;
55497;SDS011;41357;52.806;18.268;2022-07-23T01:15:37;14.88;;;11.88;;
55497;SDS011;41357;52.806;18.268;2022-07-23T01:18:04;17.40;;;12.38;;
55497;SDS011;41357;52.806;18.268;2022-07-23T01:20:30;19.13;;;11.90;;
55497;SDS011;41357;52.806;18.268;2022-07-23T01:22:57;14.88;;;11.52;;
55497;SDS011;41357;52.806;18.268;2022-07-23T01:25:23;18.52;;;11.13;;
55497;SDS011;41357;52.806;18.268;2022-07-23T01:27:51;17.92;;;11.23;;
55497;SDS011;41357;52.806;18.268;2022-07-23T01:30:17;16.98;;;11.68;;
55497;SDS011;41357;52.806;18.268;2022-07-23T01:32:43;14.82;;;12.30;;
55497;SDS011;41357;52.806;18.268;2022-07-23T01:35:10;15.00;;;11.68;;
55497;SDS011;41357;52.806;18.268;2022-07-23T01:37:36;15.25;;;11.20;;
55497;SDS011;41357;52.806;18.268;2022-07-23T01:40:03;18.40;;;12.93;;
55497;SDS011;41357;52.806;18.268;2022-07-23T01:42:30;18.83;;;12.63;;
55497;SDS011;41357;52.806;18.268;2022-07-23T01:44:56;22.38;;;14.18;;
55497;SDS011;41357;52.806;18.268;2022-07-23T01:47:22;16.52;;;13.27;;
55497;SDS011;41357;52.806;18.268;2022-07-23T01:49:48;16.55;;;12.60;;
55497;SDS011;41357;52.806;18.268;2022-07-23T01:52:14;21.52;;;14.50;;
55497;SDS011;41357;52.806;18.268;2022-07-23T01:54:41;20.92;;;14.75;;
55497;SDS011;41357;52.806;18.268;2022-07-23T01:57:07;20.25;;;14.02;;
55497;SDS011;41357;52.806;18.268;2022-07-23T01:59:34;21.77;;;14.65;;
55497;SDS011;41357;52.806;18.268;2022-07-23T02:02:00;23.85;;;15.25;;
55497;SDS011;41357;52.806;18.268;2022-07-23T02:04:26;24.90;;;15.48;;
55497;SDS011;41357;52.806;18.268;2022-07-23T02:06:53;21.25;;;15.02;;
55497;SDS011;41357;52.806;18.268;2022-07-23T02:09:19;22.48;;;15.10;;
55497;SDS011;41357;52.806;18.268;2022-07-23T02:11:46;23.10;;;14.98;;
55497;SDS011;41357;52.806;18.268;2022-07-23T02:14:12;21.10;;;15.18;;
55497;SDS011;41357;52.806;18.268;2022-07-23T02:16:38;22.48;;;15.48;;
55497;SDS011;41357;52.806;18.268;2022-07-23T02:19:04;21.38;;;15.18;;
55497;SDS011;41357;52.806;18.268;2022-07-23T02:21:31;21.67;;;15.20;;
55497;SDS011;41357;52.806;18.268;2022-07-23T02:23:57;19.70;;;14.20;;
55497;SDS011;41357;52.806;18.268;2022-07-23T02:26:23;20.38;;;15.10;;
55497;SDS011;41357;52.806;18.268;2022-07-23T02:28:49;19.77;;;14.98;;
55497;SDS011;41357;52.806;18.268;2022-07-23T02:31:17;20.73;;;14.98;;
55497;SDS011;41357;52.806;18.268;2022-07-23T02:33:44;21.85;;;15.60;;
55497;SDS011;41357;52.806;18.268;2022-07-23T02:36:10;24.85;;;16.10;;
55497;SDS011;41357;52.806;18.268;2022-07-23T02:38:39;22.42;;;16.17;;
55497;SDS011;41357;52.806;18.268;2022-07-23T02:41:05;22.15;;;15.68;;
55497;SDS011;41357;52.806;18.268;2022-07-23T02:43:31;24.52;;;15.77;;
55497;SDS011;41357;52.806;18.268;2022-07-23T02:45:57;23.05;;;16.33;;
55497;SDS011;41357;52.806;18.268;2022-07-23T02:48:23;23.75;;;16.70;;
55497;SDS011;41357;52.806;18.268;2022-07-23T02:50:49;24.15;;;16.02;;
55497;SDS011;41357;52.806;18.268;2022-07-23T02:53:17;26.88;;;16.98;;
55497;SDS011;41357;52.806;18.268;2022-07-23T02:55:43;26.38;;;17.90;;
55497;SDS011;41357;52.806;18.268;2022-07-23T02:58:09;36.40;;;21.38;;
55497;SDS011;41357;52.806;18.268;2022-07-23T03:00:35;29.80;;;20.65;;
55497;SDS011;41357;52.806;18.268;2022-07-23T03:03:01;32.75;;;21.45;;
55497;SDS011;41357;52.806;18.268;2022-07-23T03:05:28;32.35;;;20.45;;
55497;SDS011;41357;52.806;18.268;2022-07-23T03:07:54;27.92;;;19.67;;
55497;SDS011;41357;52.806;18.268;2022-07-23T03:10:20;33.17;;;18.75;;
55497;SDS011;41357;52.806;18.268;2022-07-23T03:12:46;28.65;;;19.48;;
55497;SDS011;41357;52.806;18.268;2022-07-23T03:15:12;24.98;;;17.50;;
55497;SDS011;41357;52.806;18.268;2022-07-23T03:17:38;25.63;;;17.65;;
55497;SDS011;41357;52.806;18.268;2022-07-23T03:20:04;28.65;;;17.63;;
55497;SDS011;41357;52.806;18.268;2022-07-23T03:22:31;24.83;;;17.02;;
55497;SDS011;41357;52.806;18.268;2022-07-23T03:24:57;29.77;;;17.95;;
55497;SDS011;41357;52.806;18.268;2022-07-23T03:27:24;29.63;;;19.33;;
55497;SDS011;41357;52.806;18.268;2022-07-23T03:29:54;26.83;;;19.17;;
55497;SDS011;41357;52.806;18.268;2022-07-23T03:32:21;25.83;;;18.55;;
55497;SDS011;41357;52.806;18.268;2022-07-23T03:34:47;31.52;;;17.55;;
55497;SDS011;41357;52.806;18.268;2022-07-23T03:37:14;26.83;;;18.23;;
55497;SDS011;41357;52.806;18.268;2022-07-23T03:39:40;28.40;;;18.98;;
55497;SDS011;41357;52.806;18.268;2022-07-23T03:42:07;25.77;;;19.42;;
55497;SDS011;41357;52.806;18.268;2022-07-23T03:44:33;31.08;;;19.75;;
55497;SDS011;41357;52.806;18.268;2022-07-23T03:47:01;29.50;;;18.10;;
55497;SDS011;41357;52.806;18.268;2022-07-23T03:49:27;26.02;;;17.25;;
55497;SDS011;41357;52.806;18.268;2022-07-23T03:51:53;29.83;;;18.05;;
55497;SDS011;41357;52.806;18.268;2022-07-23T03:54:19;28.50;;;19.33;;
55497;SDS011;41357;52.806;18.268;2022-07-23T03:56:46;28.05;;;19.80;;
55497;SDS011;41357;52.806;18.268;2022-07-23T03:59:12;27.20;;;19.17;;
55497;SDS011;41357;52.806;18.268;2022-07-23T04:01:41;27.33;;;18.95;;
55497;SDS011;41357;52.806;18.268;2022-07-23T04:04:08;26.65;;;17.83;;
55497;SDS011;41357;52.806;18.268;2022-07-23T04:06:34;31.42;;;19.83;;
55497;SDS011;41357;52.806;18.268;2022-07-23T04:09:01;28.65;;;20.20;;
55497;SDS011;41357;52.806;18.268;2022-07-23T04:11:27;29.85;;;19.38;;
55497;SDS011;41357;52.806;18.268;2022-07-23T04:13:53;28.30;;;17.65;;
55497;SDS011;41357;52.806;18.268;2022-07-23T04:16:19;25.42;;;18.92;;
55497;SDS011;41357;52.806;18.268;2022-07-23T04:18:45;24.77;;;18.27;;
55497;SDS011;41357;52.806;18.268;2022-07-23T04:21:12;23.10;;;17.98;;
55497;SDS011;41357;52.806;18.268;2022-07-23T04:23:38;27.17;;;19.75;;
55497;SDS011;41357;52.806;18.268;2022-07-23T04:26:04;27.83;;;19.58;;
55497;SDS011;41357;52.806;18.268;2022-07-23T04:28:30;28.83;;;18.48;;
55497;SDS011;41357;52.806;18.268;2022-07-23T04:30:57;30.25;;;18.67;;
55497;SDS011;41357;52.806;18.268;2022-07-23T04:33:23;26.83;;;19.33;;
55497;SDS011;41357;52.806;18.268;2022-07-23T04:35:49;27.40;;;19.55;;
55497;SDS011;41357;52.806;18.268;2022-07-23T04:38:15;26.45;;;18.95;;
55497;SDS011;41357;52.806;18.268;2022-07-23T04:40:41;23.95;;;18.08;;
55497;SDS011;41357;52.806;18.268;2022-07-23T04:43:08;25.33;;;18.50;;
55497;SDS011;41357;52.806;18.268;2022-07-23T04:45:34;27.27;;;17.70;;
55497;SDS011;41357;52.806;18.268;2022-07-23T04:48:00;22.33;;;16.80;;
55497;SDS011;41357;52.806;18.268;2022-07-23T04:50:26;23.10;;;16.25;;
55497;SDS011;41357;52.806;18.268;2022-07-23T04:52:52;22.33;;;16.23;;
55497;SDS011;41357;52.806;18.268;2022-07-23T04:55:18;25.33;;;16.35;;
55497;SDS011;41357;52.806;18.268;2022-07-23T04:57:45;22.15;;;15.23;;
55497;SDS011;41357;52.806;18.268;2022-07-23T05:00:11;21.38;;;16.83;;
55497;SDS011;41357;52.806;18.268;2022-07-23T05:02:37;22.75;;;15.77;;
55497;SDS011;41357;52.806;18.268;2022-07-23T05:05:04;19.00;;;14.48;;
55497;SDS011;41357;52.806;18.268;2022-07-23T05:07:30;19.23;;;14.80;;
55497;SDS011;41357;52.806;18.268;2022-07-23T05:09:56;20.55;;;14.23;;
55497;SDS011;41357;52.806;18.268;2022-07-23T05:12:22;20.65;;;14.55;;
55497;SDS011;41357;52.806;18.268;2022-07-23T05:14:48;18.85;;;14.27;;
55497;SDS011;41357;52.806;18.268;2022-07-23T05:17:14;18.20;;;14.20;;
55497;SDS011;41357;52.806;18.268;2022-07-23T05:19:40;16.55;;;13.73;;
55497;SDS011;41357;52.806;18.268;2022-07-23T05:22:06;19.25;;;14.57;;
55497;SDS011;41357;52.806;18.268;2022-07-23T05:24:33;21.90;;;13.57;;
55497;SDS011;41357;52.806;18.268;2022-07-23T05:26:59;17.38;;;11.95;;
55497;SDS011;41357;52.806;18.268;2022-07-23T05:29:25;18.20;;;12.43;;
55497;SDS011;41357;52.806;18.268;2022-07-23T05:31:51;19.23;;;12.70;;
55497;SDS011;41357;52.806;18.268;2022-07-23T05:34:17;16.90;;;13.73;;
55497;SDS011;41357;52.806;18.268;2022-07-23T05:36:43;19.15;;;12.90;;
55497;SDS011;41357;52.806;18.268;2022-07-23T05:39:09;18.98;;;11.52;;
55497;SDS011;41357;52.806;18.268;2022-07-23T05:41:36;16.67;;;13.02;;
55497;SDS011;41357;52.806;18.268;2022-07-23T05:44:02;19.20;;;11.48;;
55497;SDS011;41357;52.806;18.268;2022-07-23T05:46:28;14.63;;;12.15;;
55497;SDS011;41357;52.806;18.268;2022-07-23T05:48:54;20.88;;;11.88;;
55497;SDS011;41357;52.806;18.268;2022-07-23T05:51:21;14.85;;;11.75;;
55497;SDS011;41357;52.806;18.268;2022-07-23T05:53:47;15.15;;;11.15;;
55497;SDS011;41357;52.806;18.268;2022-07-23T05:56:13;14.02;;;10.82;;
55497;SDS011;41357;52.806;18.268;2022-07-23T05:58:39;15.18;;;12.10;;
55497;SDS011;41357;52.806;18.268;2022-07-23T06:01:05;16.38;;;11.15;;
55497;SDS011;41357;52.806;18.268;2022-07-23T06:03:31;13.65;;;11.35;;
55497;SDS011;41357;52.806;18.268;2022-07-23T06:05:58;16.67;;;11.05;;
55497;SDS011;41357;52.806;18.268;2022-07-23T06:08:24;15.52;;;11.70;;
55497;SDS011;41357;52.806;18.268;2022-07-23T06:10:50;17.15;;;11.88;;
55497;SDS011;41357;52.806;18.268;2022-07-23T06:13:18;13.82;;;11.88;;
55497;SDS011;41357;52.806;18.268;2022-07-23T06:15:44;14.57;;;11.57;;
55497;SDS011;41357;52.806;18.268;2022-07-23T06:18:10;15.43;;;11.88;;
55497;SDS011;41357;52.806;18.268;2022-07-23T06:20:36;17.08;;;11.70;;
55497;SDS011;41357;52.806;18.268;2022-07-23T06:23:03;12.63;;;10.88;;
55497;SDS011;41357;52.806;18.268;2022-07-23T06:25:29;17.60;;;11.98;;
55497;SDS011;41357;52.806;18.268;2022-07-23T06:27:55;14.73;;;11.68;;
55497;SDS011;41357;52.806;18.268;2022-07-23T06:30:21;13.15;;;10.65;;
55497;SDS011;41357;52.806;18.268;2022-07-23T06:32:48;13.30;;;10.05;;
55497;SDS011;41357;52.806;18.268;2022-07-23T06:35:14;11.98;;;9.88;;
55497;SDS011;41357;52.806;18.268;2022-07-23T06:37:41;12.98;;;9.82;;
55497;SDS011;41357;52.806;18.268;2022-07-23T06:40:07;12.68;;;9.52;;
55497;SDS011;41357;52.806;18.268;2022-07-23T06:42:33;11.75;;;8.82;;
55497;SDS011;41357;52.806;18.268;2022-07-23T06:45:02;10.52;;;7.70;;
55497;SDS011;41357;52.806;18.268;2022-07-23T06:47:29;9.57;;;8.57;;
55497;SDS011;41357;52.806;18.268;2022-07-23T06:49:55;10.07;;;8.50;;
55497;SDS011;41357;52.806;18.268;2022-07-23T06:52:21;11.80;;;8.57;;
55497;SDS011;41357;52.806;18.268;2022-07-23T06:54:47;10.25;;;8.65;;
55497;SDS011;41357;52.806;18.268;2022-07-23T06:57:14;6.35;;;5.28;;
55497;SDS011;41357;52.806;18.268;2022-07-23T06:59:40;7.90;;;5.25;;
55497;SDS011;41357;52.806;18.268;2022-07-23T07:02:07;10.13;;;5.30;;
55497;SDS011;41357;52.806;18.268;2022-07-23T07:04:33;4.60;;;4.15;;
55497;SDS011;41357;52.806;18.268;2022-07-23T07:06:59;6.30;;;5.05;;
55497;SDS011;41357;52.806;18.268;2022-07-23T07:09:25;6.38;;;4.60;;
55497;SDS011;41357;52.806;18.268;2022-07-23T07:11:52;4.82;;;4.15;;
55497;SDS011;41357;52.806;18.268;2022-07-23T07:14:18;4.82;;;3.95;;
55497;SDS011;41357;52.806;18.268;2022-07-23T07:16:44;8.93;;;5.57;;
55497;SDS011;41357;52.806;18.268;2022-07-23T07:19:10;7.13;;;5.28;;
55497;SDS011;41357;52.806;18.268;2022-07-23T07:21:36;6.97;;;4.80;;
55497;SDS011;41357;52.806;18.268;2022-07-23T07:24:02;5.72;;;4.97;;
55497;SDS011;41357;52.806;18.268;2022-07-23T07:26:29;5.35;;;4.53;;
55497;SDS011;41357;52.806;18.268;2022-07-23T07:28:56;5.30;;;4.55;;
55497;SDS011;41357;52.806;18.268;2022-07-23T07:31:22;7.32;;;5.13;;
55497;SDS011;41357;52.806;18.268;2022-07-23T07:33:48;5.78;;;5.10;;
55497;SDS011;41357;52.806;18.268;2022-07-23T07:36:14;4.63;;;4.18;;
55497;SDS011;41357;52.806;18.268;2022-07-23T07:38:40;8.38;;;4.40;;
55497;SDS011;41357;52.806;18.268;2022-07-23T07:41:07;5.40;;;4.15;;
55497;SDS011;41357;52.806;18.268;2022-07-23T07:43:35;3.78;;;3.40;;
55497;SDS011;41357;52.806;18.268;2022-07-23T07:46:01;4.68;;;4.28;;
55497;SDS011;41357;52.806;18.268;2022-07-23T07:51:04;7.07;;;4.25;;
55497;SDS011;41357;52.806;18.268;2022-07-23T07:53:30;8.57;;;4.70;;
55497;SDS011;41357;52.806;18.268;2022-07-23T07:55:56;7.32;;;4.13;;
55497;SDS011;41357;52.806;18.268;2022-07-23T07:58:22;5.05;;;4.10;;
55497;SDS011;41357;52.806;18.268;2022-07-23T08:00:48;6.95;;;4.35;;
55497;SDS011;41357;52.806;18.268;2022-07-23T08:03:14;7.82;;;4.03;;
55497;SDS011;41357;52.806;18.268;2022-07-23T08:05:40;5.18;;;3.97;;
55497;SDS011;41357;52.806;18.268;2022-07-23T08:08:07;4.28;;;3.63;;
55497;SDS011;41357;52.806;18.268;2022-07-23T08:10:34;4.40;;;3.97;;
55497;SDS011;41357;52.806;18.268;2022-07-23T08:13:00;4.68;;;3.50;;
55497;SDS011;41357;52.806;18.268;2022-07-23T08:15:28;4.30;;;3.47;;
55497;SDS011;41357;52.806;18.268;2022-07-23T08:17:54;5.10;;;4.00;;
55497;SDS011;41357;52.806;18.268;2022-07-23T08:20:21;7.82;;;3.45;;
55497;SDS011;41357;52.806;18.268;2022-07-23T08:22:50;4.80;;;4.03;;
55497;SDS011;41357;52.806;18.268;2022-07-23T08:25:19;6.65;;;3.90;;
55497;SDS011;41357;52.806;18.268;2022-07-23T08:27:46;6.13;;;3.92;;
55497;SDS011;41357;52.806;18.268;2022-07-23T08:30:13;6.88;;;3.80;;
55497;SDS011;41357;52.806;18.268;2022-07-23T08:32:53;5.05;;;4.25;;
55497;SDS011;41357;52.806;18.268;2022-07-23T08:35:23;7.95;;;4.13;;
55497;SDS011;41357;52.806;18.268;2022-07-23T08:37:50;5.18;;;3.95;;
55497;SDS011;41357;52.806;18.268;2022-07-23T08:40:16;4.35;;;3.70;;
55497;SDS011;41357;52.806;18.268;2022-07-23T08:42:42;5.53;;;4.35;;
55497;SDS011;41357;52.806;18.268;2022-07-23T08:45:08;11.38;;;4.63;;
55497;SDS011;41357;52.806;18.268;2022-07-23T08:47:35;6.07;;;4.47;;
55497;SDS011;41357;52.806;18.268;2022-07-23T08:50:02;6.00;;;4.63;;
55497;SDS011;41357;52.806;18.268;2022-07-23T08:52:28;6.97;;;4.22;;
55497;SDS011;41357;52.806;18.268;2022-07-23T08:54:56;7.13;;;4.60;;
55497;SDS011;41357;52.806;18.268;2022-07-23T08:57:23;10.27;;;4.32;;
55497;SDS011;41357;52.806;18.268;2022-07-23T08:59:49;6.68;;;4.35;;
55497;SDS011;41357;52.806;18.268;2022-07-23T09:02:15;5.13;;;4.00;;
55497;SDS011;41357;52.806;18.268;2022-07-23T09:04:41;6.57;;;4.65;;
55497;SDS011;41357;52.806;18.268;2022-07-23T09:07:07;4.38;;;3.97;;
55497;SDS011;41357;52.806;18.268;2022-07-23T09:09:34;7.28;;;4.78;;
55497;SDS011;41357;52.806;18.268;2022-07-23T09:12:07;7.07;;;4.50;;
55497;SDS011;41357;52.806;18.268;2022-07-23T09:14:41;7.38;;;4.88;;
55497;SDS011;41357;52.806;18.268;2022-07-23T09:17:14;4.85;;;4.43;;
55497;SDS011;41357;52.806;18.268;2022-07-23T09:19:40;5.40;;;4.22;;
55497;SDS011;41357;52.806;18.268;2022-07-23T09:25:05;8.27;;;4.57;;
55497;SDS011;41357;52.806;18.268;2022-07-23T09:30:17;4.68;;;4.20;;
55497;SDS011;41357;52.806;18.268;2022-07-23T09:32:44;7.72;;;5.25;;
55497;SDS011;41357;52.806;18.268;2022-07-23T09:35:10;6.03;;;4.45;;
55497;SDS011;41357;52.806;18.268;2022-07-23T09:37:36;5.30;;;4.07;;
55497;SDS011;41357;52.806;18.268;2022-07-23T09:40:03;6.05;;;4.10;;
55497;SDS011;41357;52.806;18.268;2022-07-23T09:42:30;6.50;;;4.55;;
55497;SDS011;41357;52.806;18.268;2022-07-23T09:44:57;4.18;;;3.78;;
55497;SDS011;41357;52.806;18.268;2022-07-23T09:47:24;5.55;;;4.25;;
55497;SDS011;41357;52.806;18.268;2022-07-23T09:50:24;5.80;;;4.22;;
55497;SDS011;41357;52.806;18.268;2022-07-23T09:52:46;4.63;;;3.80;;
55497;SDS011;41357;52.806;18.268;2022-07-23T09:55:13;5.70;;;4.05;;
55497;SDS011;41357;52.806;18.268;2022-07-23T09:57:43;8.68;;;4.47;;
55497;SDS011;41357;52.806;18.268;2022-07-23T10:00:15;4.20;;;3.80;;
55497;SDS011;41357;52.806;18.268;2022-07-23T10:02:41;5.57;;;3.80;;
55497;SDS011;41357;52.806;18.268;2022-07-23T10:05:09;4.30;;;3.38;;
55497;SDS011;41357;52.806;18.268;2022-07-23T10:07:39;3.50;;;3.20;;
55497;SDS011;41357;52.806;18.268;2022-07-23T10:10:06;4.05;;;3.20;;
55497;SDS011;41357;52.806;18.268;2022-07-23T10:12:33;5.00;;;3.95;;
55497;SDS011;41357;52.806;18.268;2022-07-23T10:15:03;5.32;;;4.22;;
55497;SDS011;41357;52.806;18.268;2022-07-23T10:17:30;5.65;;;4.18;;
55497;SDS011;41357;52.806;18.268;2022-07-23T10:19:57;4.72;;;3.72;;
55497;SDS011;41357;52.806;18.268;2022-07-23T10:22:24;6.10;;;4.00;;
55497;SDS011;41357;52.806;18.268;2022-07-23T10:30:00;6.55;;;5.43;;
55497;SDS011;41357;52.806;18.268;2022-07-23T10:32:52;10.23;;;6.43;;
55497;SDS011;41357;52.806;18.268;2022-07-23T10:35:38;9.75;;;7.35;;
55497;SDS011;41357;52.806;18.268;2022-07-23T10:40:37;10.80;;;8.75;;
55497;SDS011;41357;52.806;18.268;2022-07-23T10:43:18;15.40;;;10.10;;
55497;SDS011;41357;52.806;18.268;2022-07-23T10:45:45;13.77;;;9.43;;
55497;SDS011;41357;52.806;18.268;2022-07-23T10:48:11;10.30;;;8.27;;
55497;SDS011;41357;52.806;18.268;2022-07-23T10:50:38;13.60;;;9.00;;
55497;SDS011;41357;52.806;18.268;2022-07-23T10:58:01;15.88;;;12.90;;
55497;SDS011;41357;52.806;18.268;2022-07-23T11:00:28;16.02;;;12.18;;
55497;SDS011;41357;52.806;18.268;2022-07-23T11:02:59;17.15;;;12.75;;
55497;SDS011;41357;52.806;18.268;2022-07-23T11:05:26;25.02;;;17.10;;
55497;SDS011;41357;52.806;18.268;2022-07-23T11:10:37;26.27;;;17.63;;
55497;SDS011;41357;52.806;18.268;2022-07-23T11:37:06;13.55;;;11.38;;
55497;SDS011;41357;52.806;18.268;2022-07-23T11:39:33;15.93;;;12.35;;
55497;SDS011;41357;52.806;18.268;2022-07-23T11:41:59;16.20;;;12.23;;
55497;SDS011;41357;52.806;18.268;2022-07-23T11:44:27;15.20;;;12.68;;
55497;SDS011;41357;52.806;18.268;2022-07-23T11:46:57;24.23;;;12.73;;
55497;SDS011;41357;52.806;18.268;2022-07-23T11:49:24;16.60;;;12.88;;
55497;SDS011;41357;52.806;18.268;2022-07-23T11:54:30;17.08;;;13.30;;
55497;SDS011;41357;52.806;18.268;2022-07-23T11:56:56;21.70;;;12.35;;
55497;SDS011;41357;52.806;18.268;2022-07-23T11:59:23;19.52;;;14.02;;
55497;SDS011;41357;52.806;18.268;2022-07-23T12:02:03;14.63;;;12.85;;
55497;SDS011;41357;52.806;18.268;2022-07-23T12:04:49;17.33;;;13.47;;
55497;SDS011;41357;52.806;18.268;2022-07-23T12:10:16;16.48;;;13.25;;
55497;SDS011;41357;52.806;18.268;2022-07-23T12:12:47;17.30;;;14.20;;
55497;SDS011;41357;52.806;18.268;2022-07-23T12:15:21;15.57;;;12.68;;
55497;SDS011;41357;52.806;18.268;2022-07-23T12:17:48;19.55;;;13.73;;
55497;SDS011;41357;52.806;18.268;2022-07-23T12:20:20;15.70;;;13.40;;
55497;SDS011;41357;52.806;18.268;2022-07-23T12:22:47;14.77;;;11.60;;
55497;SDS011;41357;52.806;18.268;2022-07-23T12:25:15;19.38;;;11.18;;
55497;SDS011;41357;52.806;18.268;2022-07-23T12:27:42;11.60;;;9.85;;
55497;SDS011;41357;52.806;18.268;2022-07-23T12:30:15;13.05;;;10.15;;
55497;SDS011;41357;52.806;18.268;2022-07-23T12:32:44;13.65;;;10.05;;
55497;SDS011;41357;52.806;18.268;2022-07-23T12:35:11;10.55;;;8.65;;
55497;SDS011;41357;52.806;18.268;2022-07-23T12:37:38;10.20;;;8.68;;
55497;SDS011;41357;52.806;18.268;2022-07-23T12:42:47;14.63;;;10.63;;
55497;SDS011;41357;52.806;18.268;2022-07-23T12:45:13;19.35;;;11.52;;
55497;SDS011;41357;52.806;18.268;2022-07-23T12:47:59;17.40;;;12.52;;
55497;SDS011;41357;52.806;18.268;2022-07-23T12:50:33;17.73;;;12.02;;
55497;SDS011;41357;52.806;18.268;2022-07-23T12:53:08;18.10;;;13.15;;
55497;SDS011;41357;52.806;18.268;2022-07-23T12:55:34;17.83;;;12.82;;
55497;SDS011;41357;52.806;18.268;2022-07-23T12:58:05;17.08;;;12.32;;
55497;SDS011;41357;52.806;18.268;2022-07-23T13:00:32;24.00;;;13.57;;
55497;SDS011;41357;52.806;18.268;2022-07-23T13:02:58;18.80;;;15.00;;
55497;SDS011;41357;52.806;18.268;2022-07-23T13:05:24;18.30;;;14.60;;
55497;SDS011;41357;52.806;18.268;2022-07-23T13:07:50;16.65;;;14.02;;
55497;SDS011;41357;52.806;18.268;2022-07-23T13:10:16;18.45;;;13.80;;
55497;SDS011;41357;52.806;18.268;2022-07-23T13:12:42;17.73;;;13.30;;
55497;SDS011;41357;52.806;18.268;2022-07-23T13:15:09;19.42;;;15.23;;
55497;SDS011;41357;52.806;18.268;2022-07-23T13:17:35;17.67;;;14.85;;
55497;SDS011;41357;52.806;18.268;2022-07-23T13:20:01;18.02;;;14.63;;
55497;SDS011;41357;52.806;18.268;2022-07-23T13:22:28;16.38;;;13.85;;
55497;SDS011;41357;52.806;18.268;2022-07-23T13:24:54;17.42;;;13.02;;
55497;SDS011;41357;52.806;18.268;2022-07-23T13:27:20;17.30;;;14.48;;
55497;SDS011;41357;52.806;18.268;2022-07-23T13:29:46;16.60;;;13.57;;
55497;SDS011;41357;52.806;18.268;2022-07-23T13:32:12;16.60;;;12.18;;
55497;SDS011;41357;52.806;18.268;2022-07-23T13:34:39;17.08;;;12.32;;
55497;SDS011;41357;52.806;18.268;2022-07-23T13:37:05;18.55;;;13.50;;
55497;SDS011;41357;52.806;18.268;2022-07-23T13:39:31;15.27;;;12.90;;
55497;SDS011;41357;52.806;18.268;2022-07-23T13:41:57;19.88;;;14.27;;
55497;SDS011;41357;52.806;18.268;2022-07-23T13:44:24;19.50;;;13.25;;
55497;SDS011;41357;52.806;18.268;2022-07-23T13:46:50;17.77;;;12.73;;
55497;SDS011;41357;52.806;18.268;2022-07-23T13:49:16;14.90;;;12.10;;
55497;SDS011;41357;52.806;18.268;2022-07-23T13:51:42;14.43;;;12.75;;
55497;SDS011;41357;52.806;18.268;2022-07-23T13:54:08;14.55;;;12.32;;
55497;SDS011;41357;52.806;18.268;2022-07-23T13:56:35;14.73;;;12.82;;
55497;SDS011;41357;52.806;18.268;2022-07-23T13:59:01;21.20;;;12.63;;
55497;SDS011;41357;52.806;18.268;2022-07-23T14:01:27;16.58;;;12.30;;
55497;SDS011;41357;52.806;18.268;2022-07-23T14:03:53;14.75;;;12.95;;
55497;SDS011;41357;52.806;18.268;2022-07-23T14:06:19;13.18;;;11.30;;
55497;SDS011;41357;52.806;18.268;2022-07-23T14:08:46;18.45;;;12.05;;
55497;SDS011;41357;52.806;18.268;2022-07-23T14:11:12;14.40;;;12.85;;
55497;SDS011;41357;52.806;18.268;2022-07-23T14:13:38;15.98;;;12.65;;
55497;SDS011;41357;52.806;18.268;2022-07-23T14:16:04;15.18;;;13.43;;
55497;SDS011;41357;52.806;18.268;2022-07-23T14:18:30;15.60;;;13.88;;
55497;SDS011;41357;52.806;18.268;2022-07-23T14:20:57;16.80;;;13.80;;
55497;SDS011;41357;52.806;18.268;2022-07-23T14:23:23;16.85;;;14.07;;
55497;SDS011;41357;52.806;18.268;2022-07-23T14:25:49;18.45;;;15.30;;
55497;SDS011;41357;52.806;18.268;2022-07-23T14:28:15;18.00;;;14.40;;
55497;SDS011;41357;52.806;18.268;2022-07-23T14:30:41;18.70;;;14.50;;
55497;SDS011;41357;52.806;18.268;2022-07-23T14:33:08;17.83;;;14.98;;
55497;SDS011;41357;52.806;18.268;2022-07-23T14:35:34;16.35;;;13.60;;
55497;SDS011;41357;52.806;18.268;2022-07-23T14:38:01;16.55;;;14.02;;
55497;SDS011;41357;52.806;18.268;2022-07-23T14:40:27;18.20;;;15.55;;
55497;SDS011;41357;52.806;18.268;2022-07-23T14:42:53;18.70;;;16.10;;
55497;SDS011;41357;52.806;18.268;2022-07-23T14:45:19;22.10;;;17.52;;
55497;SDS011;41357;52.806;18.268;2022-07-23T14:47:46;18.75;;;16.20;;
55497;SDS011;41357;52.806;18.268;2022-07-23T14:50:13;18.60;;;16.38;;
55497;SDS011;41357;52.806;18.268;2022-07-23T14:52:39;21.23;;;16.50;;
55497;SDS011;41357;52.806;18.268;2022-07-23T14:55:05;25.25;;;16.85;;
55497;SDS011;41357;52.806;18.268;2022-07-23T14:57:32;21.73;;;16.15;;
55497;SDS011;41357;52.806;18.268;2022-07-23T14:59:58;19.90;;;15.10;;
55497;SDS011;41357;52.806;18.268;2022-07-23T15:02:24;15.68;;;13.50;;
55497;SDS011;41357;52.806;18.268;2022-07-23T15:04:50;14.48;;;13.05;;
55497;SDS011;41357;52.806;18.268;2022-07-23T15:07:16;13.88;;;11.07;;
55497;SDS011;41357;52.806;18.268;2022-07-23T15:09:42;16.27;;;10.90;;